createdAt,value
2023-08-18T00:01:11.396Z,98632.97
2023-08-18T00:03:38.781Z,98601.91
2023-08-18T00:06:06.588Z,98627.97
2023-08-18T00:08:33.355Z,98630.22
2023-08-18T00:11:00.499Z,98645.75
2023-08-18T00:13:27.266Z,98641.53
2023-08-18T00:15:54.213Z,98616.78
2023-08-18T00:18:21.015Z,98639.78
2023-08-18T00:20:48.202Z,98632.25
2023-08-18T00:23:15.007Z,98630.31
2023-08-18T00:25:41.704Z,98631.81
2023-08-18T00:28:08.604Z,98627.16
2023-08-18T00:30:35.302Z,98618.22
2023-08-18T00:33:02.335Z,98602.81
2023-08-18T00:35:29.614Z,98607.22
2023-08-18T00:37:56.371Z,98610.75
2023-08-18T00:40:26.242Z,98618.59
2023-08-18T00:42:53.353Z,98606.81
2023-08-18T00:45:20.162Z,98615.22
2023-08-18T00:47:47.186Z,98612.97
2023-08-18T00:50:15.694Z,98621.59
2023-08-18T00:52:43.846Z,98623.44
2023-08-18T00:55:12.272Z,98609.72
2023-08-18T00:57:40.380Z,98625.78
2023-08-18T01:00:07.924Z,98624.94
2023-08-18T01:02:35.148Z,98621.94
2023-08-18T01:05:02.012Z,98621.69
2023-08-18T01:07:28.821Z,98621.59
2023-08-18T01:09:56.182Z,98620.25
2023-08-18T01:13:00.931Z,98629.09
2023-08-18T01:15:37.515Z,98613.50
2023-08-18T01:18:05.975Z,98618.06
2023-08-18T01:20:34.059Z,98624.47
2023-08-18T01:23:02.241Z,98618.59
2023-08-18T01:25:30.104Z,98619.44
2023-08-18T01:27:59.324Z,98629.50
2023-08-18T01:30:35.315Z,98618.34
2023-08-18T01:33:21.628Z,98619.19
2023-08-18T01:35:50.240Z,98615.47
2023-08-18T01:38:20.086Z,98606.25
2023-08-18T01:40:48.826Z,98611.56
2023-08-18T01:43:15.605Z,98615.19
2023-08-18T01:45:43.054Z,98600.41
2023-08-18T01:48:10.778Z,98610.00
2023-08-18T01:50:37.572Z,98603.38
2023-08-18T01:53:04.569Z,98599.47
2023-08-18T01:55:31.336Z,98604.50
2023-08-18T02:00:24.758Z,98595.00
2023-08-18T02:02:53.503Z,98596.59
2023-08-18T02:05:20.131Z,98598.78
2023-08-18T02:07:46.887Z,98595.13
2023-08-18T02:10:13.676Z,98590.13
2023-08-18T02:12:40.400Z,98584.38
2023-08-18T02:15:07.808Z,98585.28
2023-08-18T02:17:34.574Z,98582.13
2023-08-18T02:20:05.035Z,98582.28
2023-08-18T02:22:31.981Z,98568.13
2023-08-18T02:24:58.781Z,98583.72
2023-08-18T02:27:27.254Z,98585.94
2023-08-18T02:29:54.459Z,98571.63
2023-08-18T02:32:21.087Z,98580.22
2023-08-18T02:34:47.819Z,98590.75
2023-08-18T02:37:14.876Z,98575.91
2023-08-18T02:39:41.636Z,98574.34
2023-08-18T02:42:09.644Z,98581.31
2023-08-18T02:44:36.383Z,98584.94
2023-08-18T02:47:03.214Z,98583.91
2023-08-18T02:49:29.964Z,98582.00
2023-08-18T02:51:56.996Z,98576.13
2023-08-18T02:54:25.063Z,98588.44
2023-08-18T02:56:51.892Z,98585.63
2023-08-18T02:59:19.126Z,98588.97
2023-08-18T03:01:46.106Z,98586.56
2023-08-18T03:04:15.440Z,98589.72
2023-08-18T03:06:42.719Z,98588.69
2023-08-18T03:09:09.437Z,98590.00
2023-08-18T03:11:36.280Z,98585.88
2023-08-18T03:14:03.620Z,98582.66
2023-08-18T03:16:30.448Z,98572.16
2023-08-18T03:18:57.082Z,98579.81
2023-08-18T03:21:23.809Z,98577.66
2023-08-18T03:23:50.607Z,98581.44
2023-08-18T03:26:17.416Z,98577.34
2023-08-18T03:28:44.977Z,98580.78
2023-08-18T03:31:11.911Z,98588.28
2023-08-18T03:33:38.958Z,98587.59
2023-08-18T03:36:09.158Z,98582.13
2023-08-18T03:38:37.225Z,98587.09
2023-08-18T03:41:05.745Z,98582.19
2023-08-18T03:43:36.475Z,98587.47
2023-08-18T03:46:26.557Z,98587.75
2023-08-18T03:48:56.833Z,98586.34
2023-08-18T03:51:23.960Z,98590.81
2023-08-18T03:53:50.811Z,98584.34
2023-08-18T03:56:17.654Z,98589.13
2023-08-18T03:58:44.944Z,98584.94
2023-08-18T04:01:12.182Z,98581.19
2023-08-18T04:03:43.797Z,98596.09
2023-08-18T04:06:15.019Z,98594.22
2023-08-18T04:08:46.935Z,98598.31
2023-08-18T04:11:15.048Z,98592.03
2023-08-18T04:13:41.870Z,98602.22
2023-08-18T04:16:09.364Z,98604.78
2023-08-18T04:18:38.106Z,98596.97
2023-08-18T04:21:05.849Z,98603.63
2023-08-18T04:23:32.650Z,98601.63
2023-08-18T04:25:59.369Z,98595.84
2023-08-18T04:28:26.692Z,98599.38
2023-08-18T04:30:53.478Z,98617.63
2023-08-18T04:33:28.862Z,98611.44
2023-08-18T04:36:00.049Z,98611.41
2023-08-18T04:38:29.121Z,98620.63
2023-08-18T04:41:02.810Z,98611.88
2023-08-18T04:43:31.539Z,98600.94
2023-08-18T04:45:59.125Z,98616.88
2023-08-18T04:48:26.738Z,98615.34
2023-08-18T04:50:53.933Z,98617.22
2023-08-18T04:53:21.178Z,98612.84
2023-08-18T04:55:47.970Z,98617.03
2023-08-18T04:58:14.796Z,98616.56
2023-08-18T05:00:43.206Z,98602.66
2023-08-18T05:03:14.149Z,98600.78
2023-08-18T05:06:04.181Z,98629.66
2023-08-18T05:08:32.101Z,98627.94
2023-08-18T05:11:07.348Z,98616.59
2023-08-18T05:13:35.307Z,98619.22
2023-08-18T05:16:02.811Z,98618.50
2023-08-18T05:18:30.234Z,98620.31
2023-08-18T05:20:57.869Z,98622.34
2023-08-18T05:23:25.470Z,98622.13
2023-08-18T05:25:55.333Z,98616.19
2023-08-18T05:28:23.073Z,98599.19
2023-08-18T05:30:50.615Z,98614.53
2023-08-18T05:33:17.725Z,98614.22
2023-08-18T05:35:44.980Z,98613.63
2023-08-18T05:38:12.185Z,98616.47
2023-08-18T05:40:42.819Z,98622.78
2023-08-18T05:43:13.729Z,98626.41
2023-08-18T05:45:40.940Z,98630.66
2023-08-18T05:48:07.985Z,98626.34
2023-08-18T05:50:35.496Z,98635.69
2023-08-18T05:53:03.460Z,98635.63
2023-08-18T05:55:30.347Z,98639.13
2023-08-18T05:57:59.476Z,98642.81
2023-08-18T06:00:26.363Z,98636.69
2023-08-18T06:02:53.767Z,98644.16
2023-08-18T06:05:20.578Z,98641.59
2023-08-18T06:07:47.239Z,98638.28
2023-08-18T06:10:13.953Z,98642.94
2023-08-18T06:12:40.744Z,98649.97
2023-08-18T06:15:08.415Z,98647.13
2023-08-18T06:17:35.713Z,98647.56
2023-08-18T06:20:03.544Z,98647.19
2023-08-18T06:22:30.545Z,98651.00
2023-08-18T06:24:57.486Z,98642.81
2023-08-18T06:27:24.142Z,98644.88
2023-08-18T06:29:50.845Z,98652.50
2023-08-18T06:32:17.658Z,98645.88
2023-08-18T06:34:44.219Z,98648.25
2023-08-18T06:37:11.198Z,98654.19
2023-08-18T06:39:37.996Z,98658.03
2023-08-18T06:42:04.787Z,98654.75
2023-08-18T06:44:33.277Z,98661.34
2023-08-18T06:46:59.969Z,98655.41
2023-08-18T06:49:26.725Z,98662.72
2023-08-18T06:51:53.283Z,98662.28
2023-08-18T06:54:20.066Z,98653.28
2023-08-18T06:56:46.666Z,98663.69
2023-08-18T06:59:14.514Z,98657.31
2023-08-18T07:01:42.213Z,98647.91
2023-08-18T07:04:09.328Z,98653.19
2023-08-18T07:06:36.248Z,98666.59
2023-08-18T07:09:05.079Z,98660.47
2023-08-18T07:11:31.937Z,98652.34
2023-08-18T07:13:58.656Z,98651.06
2023-08-18T07:16:25.469Z,98657.50
2023-08-18T07:18:52.236Z,98665.44
2023-08-18T07:21:18.994Z,98664.94
2023-08-18T07:23:45.542Z,98661.16
2023-08-18T07:26:12.289Z,98668.44
2023-08-18T07:28:39.118Z,98660.53
2023-08-18T07:31:06.255Z,98660.72
2023-08-18T07:33:33.126Z,98652.44
2023-08-18T07:35:59.909Z,98660.88
2023-08-18T07:38:26.751Z,98669.13
2023-08-18T07:40:54.756Z,98664.25
2023-08-18T07:43:21.465Z,98660.19
2023-08-18T07:45:48.301Z,98662.66
2023-08-18T07:48:15.105Z,98666.97
2023-08-18T07:50:42.628Z,98668.81
2023-08-18T07:53:09.372Z,98670.75
2023-08-18T07:55:37.789Z,98668.00
2023-08-18T07:58:05.803Z,98668.34
2023-08-18T08:00:33.987Z,98675.31
2023-08-18T08:03:01.120Z,98671.88
2023-08-18T08:05:27.963Z,98672.03
2023-08-18T08:07:56.625Z,98666.41
2023-08-18T08:10:25.608Z,98664.91
2023-08-18T08:12:52.328Z,98665.31
2023-08-18T08:15:19.079Z,98663.41
2023-08-18T08:17:46.060Z,98670.38
2023-08-18T08:20:17.053Z,98665.81
2023-08-18T08:22:45.589Z,98663.91
2023-08-18T08:25:12.459Z,98663.38
2023-08-18T08:27:39.430Z,98655.63
2023-08-18T08:30:11.444Z,98668.88
2023-08-18T08:32:38.668Z,98654.03
2023-08-18T08:35:05.890Z,98655.56
2023-08-18T08:37:38.082Z,98657.50
2023-08-18T08:40:06.376Z,98655.63
2023-08-18T08:42:33.125Z,98665.63
2023-08-18T08:44:59.871Z,98663.75
2023-08-18T08:47:27.474Z,98662.69
2023-08-18T08:50:02.854Z,98674.28
2023-08-18T08:52:36.377Z,98672.72
2023-08-18T08:55:07.614Z,98668.06
2023-08-18T08:57:35.225Z,98673.00
2023-08-18T09:00:02.013Z,98664.59
2023-08-18T09:02:29.218Z,98666.09
2023-08-18T09:05:01.270Z,98670.81
2023-08-18T09:07:29.384Z,98668.59
2023-08-18T09:09:56.971Z,98661.69
2023-08-18T09:12:32.573Z,98672.19
2023-08-18T09:15:00.187Z,98669.22
2023-08-18T09:17:33.358Z,98676.75
2023-08-18T09:20:01.265Z,98670.59
2023-08-18T09:22:29.962Z,98658.38
2023-08-18T09:24:58.282Z,98668.09
2023-08-18T09:27:25.543Z,98661.63
2023-08-18T09:29:53.664Z,98658.97
2023-08-18T09:32:23.747Z,98664.22
2023-08-18T09:34:57.072Z,98657.00
2023-08-18T09:37:31.411Z,98665.91
2023-08-18T09:39:58.532Z,98668.13
2023-08-18T09:42:25.478Z,98655.19
2023-08-18T09:44:53.280Z,98652.47
2023-08-18T09:47:22.813Z,98648.66
2023-08-18T09:49:51.733Z,98649.81
2023-08-18T09:52:20.381Z,98648.16
2023-08-18T09:55:07.233Z,98654.19
2023-08-18T09:58:28.363Z,98644.50
2023-08-18T10:00:58.754Z,98633.34
2023-08-18T10:03:29.618Z,98645.69
2023-08-18T10:05:56.555Z,98643.75
2023-08-18T10:08:25.830Z,98633.09
2023-08-18T10:10:52.831Z,98631.88
2023-08-18T10:13:20.742Z,98637.50
2023-08-18T10:15:48.659Z,98636.66
2023-08-18T10:18:15.589Z,98637.03
2023-08-18T10:20:53.310Z,98631.66
2023-08-18T10:23:20.925Z,98639.00
2023-08-18T10:25:52.440Z,98645.47
2023-08-18T10:28:20.780Z,98640.06
2023-08-18T10:31:05.157Z,98634.69
2023-08-18T10:33:38.872Z,98637.44
2023-08-18T10:36:07.555Z,98632.63
2023-08-18T10:38:37.208Z,98636.13
2023-08-18T10:41:04.724Z,98627.28
2023-08-18T10:43:42.485Z,98622.22
2023-08-18T10:46:14.584Z,98628.34
2023-08-18T10:48:41.443Z,98627.84
2023-08-18T10:51:08.631Z,98627.31
2023-08-18T10:53:38.570Z,98622.00
2023-08-18T10:56:06.171Z,98622.28
2023-08-18T10:58:35.599Z,98619.25
2023-08-18T11:01:03.200Z,98612.94
2023-08-18T11:03:30.137Z,98612.59
2023-08-18T11:05:58.456Z,98617.25
2023-08-18T11:08:26.468Z,98607.41
2023-08-18T11:10:54.547Z,98614.84
2023-08-18T11:13:30.088Z,98614.81
2023-08-18T11:15:57.977Z,98612.59
2023-08-18T11:18:27.165Z,98612.91
2023-08-18T11:20:56.646Z,98611.78
2023-08-18T11:23:23.631Z,98611.53
2023-08-18T11:25:50.402Z,98613.75
2023-08-18T11:28:18.352Z,98614.81
2023-08-18T11:30:45.464Z,98607.59
2023-08-18T11:33:12.649Z,98606.16
2023-08-18T11:35:39.941Z,98609.97
2023-08-18T11:38:09.177Z,98612.34
2023-08-18T11:40:39.655Z,98613.31
2023-08-18T11:43:11.745Z,98606.00
2023-08-18T11:45:39.375Z,98599.09
2023-08-18T11:48:07.370Z,98611.75
2023-08-18T11:50:38.553Z,98597.19
2023-08-18T11:53:07.300Z,98602.94
2023-08-18T11:55:40.001Z,98591.91
2023-08-18T11:58:11.964Z,98585.56
2023-08-18T12:00:41.339Z,98592.75
2023-08-18T12:03:20.876Z,98595.16
2023-08-18T12:05:47.718Z,98584.94
2023-08-18T12:08:14.651Z,98594.25
2023-08-18T12:10:43.531Z,98587.47
2023-08-18T12:13:10.328Z,98583.66
2023-08-18T12:15:37.193Z,98581.69
2023-08-18T12:18:04.940Z,98586.09
2023-08-18T12:20:33.049Z,98579.53
2023-08-18T12:23:00.149Z,98586.59
2023-08-18T12:25:26.998Z,98576.75
2023-08-18T12:27:53.736Z,98568.97
2023-08-18T12:30:21.176Z,98576.22
2023-08-18T12:32:50.754Z,98578.50
2023-08-18T12:35:18.818Z,98579.25
2023-08-18T12:37:45.983Z,98566.22
2023-08-18T12:40:12.864Z,98576.44
2023-08-18T12:42:40.243Z,98575.53
2023-08-18T12:45:08.798Z,98564.31
2023-08-18T12:47:36.033Z,98569.53
2023-08-18T12:50:03.957Z,98575.53
2023-08-18T12:52:31.059Z,98569.03
2023-08-18T12:54:58.071Z,98564.06
2023-08-18T12:57:24.960Z,98565.22
2023-08-18T12:59:51.746Z,98562.25
2023-08-18T13:02:18.476Z,98564.56
2023-08-18T13:04:45.382Z,98572.34
2023-08-18T13:07:12.126Z,98571.28
2023-08-18T13:09:38.866Z,98566.78
2023-08-18T13:12:08.042Z,98566.41
2023-08-18T13:14:35.395Z,98565.84
2023-08-18T13:17:04.892Z,98571.25
2023-08-18T13:19:32.685Z,98569.56
2023-08-18T13:21:59.678Z,98565.09
2023-08-18T13:24:27.043Z,98561.06
2023-08-18T13:26:54.854Z,98567.78
2023-08-18T13:29:25.365Z,98562.63
2023-08-18T13:31:54.150Z,98558.38
2023-08-18T13:34:21.448Z,98558.22
2023-08-18T13:36:48.413Z,98557.16
2023-08-18T13:39:16.898Z,98557.03
2023-08-18T13:41:43.876Z,98561.09
2023-08-18T13:44:10.910Z,98552.47
2023-08-18T13:46:37.913Z,98549.28
2023-08-18T13:49:04.979Z,98545.47
2023-08-18T13:51:31.693Z,98549.66
2023-08-18T13:53:58.415Z,98542.75
2023-08-18T13:56:25.211Z,98545.25
2023-08-18T13:58:51.907Z,98550.47
2023-08-18T14:01:19.023Z,98546.88
2023-08-18T14:03:45.970Z,98545.94
2023-08-18T14:06:12.713Z,98548.13
2023-08-18T14:08:39.540Z,98552.50
2023-08-18T14:11:06.798Z,98555.22
2023-08-18T14:13:36.706Z,98550.31
2023-08-18T14:16:04.072Z,98542.25
2023-08-18T14:18:31.014Z,98554.13
2023-08-18T14:20:57.754Z,98554.69
2023-08-18T14:23:24.540Z,98542.88
2023-08-18T14:25:51.416Z,98554.22
2023-08-18T14:28:18.145Z,98551.56
2023-08-18T14:30:44.965Z,98560.97
2023-08-18T14:33:11.745Z,98562.34
2023-08-18T14:35:38.540Z,98565.91
2023-08-18T14:38:05.413Z,98555.59
2023-08-18T14:40:35.051Z,98566.53
2023-08-18T14:43:16.142Z,98559.47
2023-08-18T14:45:45.435Z,98558.41
2023-08-18T14:48:12.861Z,98560.75
2023-08-18T14:50:40.210Z,98558.00
2023-08-18T14:53:08.292Z,98555.41
2023-08-18T14:55:35.091Z,98548.06
2023-08-18T14:58:01.823Z,98563.06
2023-08-18T15:00:35.715Z,98549.09
2023-08-18T15:03:04.416Z,98540.00
2023-08-18T15:05:31.298Z,98547.06
2023-08-18T15:07:58.303Z,98543.75
2023-08-18T15:10:25.048Z,98545.16
2023-08-18T15:12:51.878Z,98537.06
2023-08-18T15:15:18.805Z,98537.88
2023-08-18T15:17:45.625Z,98533.56
2023-08-18T15:20:12.502Z,98546.16
2023-08-18T15:22:39.434Z,98544.53
2023-08-18T15:25:06.552Z,98542.38
2023-08-18T15:27:35.107Z,98532.50
2023-08-18T15:30:03.246Z,98532.03
2023-08-18T15:32:30.046Z,98539.59
2023-08-18T15:34:56.821Z,98542.47
2023-08-18T15:37:23.552Z,98539.44
2023-08-18T15:39:53.556Z,98535.66
2023-08-18T15:42:20.422Z,98525.94
2023-08-18T15:44:47.175Z,98535.03
2023-08-18T15:47:14.016Z,98544.13
2023-08-18T15:49:40.809Z,98547.88
2023-08-18T15:52:07.510Z,98545.47
2023-08-18T15:54:34.346Z,98540.50
2023-08-18T15:57:01.126Z,98539.81
2023-08-18T15:59:31.986Z,98545.69
2023-08-18T16:01:59.205Z,98553.38
2023-08-18T16:04:26.200Z,98549.56
2023-08-18T16:06:53.085Z,98532.50
2023-08-18T16:09:19.988Z,98544.91
2023-08-18T16:11:46.761Z,98546.22
2023-08-18T16:14:39.184Z,98548.38
2023-08-18T16:17:00.333Z,98552.97
2023-08-18T16:19:28.907Z,98548.56
2023-08-18T16:21:55.718Z,98561.13
2023-08-18T16:24:23.245Z,98560.88
2023-08-18T16:26:52.367Z,98558.13
2023-08-18T16:29:19.143Z,98563.03
2023-08-18T16:31:45.924Z,98560.44
2023-08-18T16:34:12.649Z,98561.19
2023-08-18T16:36:39.859Z,98561.38
2023-08-18T16:39:06.975Z,98551.91
2023-08-18T16:41:33.691Z,98557.78
2023-08-18T16:44:00.459Z,98557.09
2023-08-18T16:46:27.285Z,98556.97
2023-08-18T16:48:55.196Z,98555.22
2023-08-18T16:51:22.072Z,98555.47
2023-08-18T16:53:48.902Z,98556.00
2023-08-18T16:56:15.751Z,98550.03
2023-08-18T16:58:42.574Z,98552.00
2023-08-18T17:01:09.374Z,98550.78
2023-08-18T17:03:36.106Z,98555.25
2023-08-18T17:06:02.911Z,98550.34
2023-08-18T17:08:29.606Z,98555.38
2023-08-18T17:10:56.708Z,98551.31
2023-08-18T17:13:24.202Z,98543.69
2023-08-18T17:15:53.004Z,98543.69
2023-08-18T17:18:20.061Z,98546.97
2023-08-18T17:20:47.359Z,98552.91
2023-08-18T17:23:14.451Z,98556.00
2023-08-18T17:25:41.447Z,98564.94
2023-08-18T17:28:08.303Z,98565.25
2023-08-18T17:30:35.105Z,98563.66
2023-08-18T17:33:02.019Z,98564.47
2023-08-18T17:35:28.768Z,98564.47
2023-08-18T17:37:57.486Z,98567.59
2023-08-18T17:40:24.336Z,98567.72
2023-08-18T17:42:51.212Z,98566.47
2023-08-18T17:45:18.018Z,98575.91
2023-08-18T17:47:44.787Z,98574.84
2023-08-18T17:50:11.548Z,98573.06
2023-08-18T17:52:38.348Z,98583.22
2023-08-18T17:55:05.385Z,98582.81
2023-08-18T17:57:32.239Z,98590.50
2023-08-18T17:59:59.266Z,98599.25
2023-08-18T18:02:26.357Z,98594.00
2023-08-18T18:04:54.796Z,98617.84
2023-08-18T18:07:21.531Z,98613.63
2023-08-18T18:09:48.310Z,98630.13
2023-08-18T18:12:15.956Z,98624.88
2023-08-18T18:14:47.120Z,98615.53
2023-08-18T18:17:15.783Z,98627.03
2023-08-18T18:19:42.816Z,98621.38
2023-08-18T18:22:10.289Z,98630.81
2023-08-18T18:24:37.736Z,98631.19
2023-08-18T18:27:05.521Z,98636.47
2023-08-18T18:29:32.265Z,98633.31
2023-08-18T18:31:59.065Z,98627.44
2023-08-18T18:34:25.914Z,98639.34
2023-08-18T18:36:52.703Z,98651.94
2023-08-18T18:39:19.444Z,98652.47
2023-08-18T18:41:46.209Z,98649.59
2023-08-18T18:44:12.980Z,98654.56
2023-08-18T18:46:40.665Z,98662.09
2023-08-18T18:49:07.433Z,98657.63
2023-08-18T18:51:34.181Z,98647.72
2023-08-18T18:54:01.070Z,98653.44
2023-08-18T18:56:28.620Z,98663.03
2023-08-18T18:58:55.514Z,98659.16
2023-08-18T19:01:22.322Z,98660.50
2023-08-18T19:03:49.044Z,98663.06
2023-08-18T19:06:15.827Z,98649.97
2023-08-18T19:08:43.453Z,98654.41
2023-08-18T19:11:10.223Z,98656.88
2023-08-18T19:13:36.965Z,98656.44
2023-08-18T19:16:08.165Z,98658.22
2023-08-18T19:18:36.113Z,98666.50
2023-08-18T19:21:03.064Z,98659.53
2023-08-18T19:23:36.718Z,98662.06
2023-08-18T19:26:04.013Z,98655.44
2023-08-18T19:28:35.538Z,98654.91
2023-08-18T19:31:07.764Z,98655.25
2023-08-18T19:33:35.096Z,98648.19
2023-08-18T19:36:02.638Z,98656.56
2023-08-18T19:38:29.530Z,98653.97
2023-08-18T19:40:56.189Z,98651.63
2023-08-18T19:43:23.537Z,98663.91
2023-08-18T19:45:57.771Z,98653.81
2023-08-18T19:48:25.093Z,98657.31
2023-08-18T19:50:56.035Z,98647.84
2023-08-18T19:53:26.297Z,98657.88
2023-08-18T19:55:53.057Z,98660.78
2023-08-18T19:58:20.010Z,98659.44
2023-08-18T20:00:47.427Z,98660.81
2023-08-18T20:03:14.452Z,98665.97
2023-08-18T20:05:41.250Z,98659.53
2023-08-18T20:08:09.665Z,98656.19
2023-08-18T20:10:36.966Z,98648.75
2023-08-18T20:13:04.753Z,98657.84
2023-08-18T20:15:31.942Z,98646.94
2023-08-18T20:17:58.782Z,98647.50
2023-08-18T20:20:25.859Z,98661.72
2023-08-18T20:22:52.892Z,98660.31
2023-08-18T20:25:19.738Z,98654.56
2023-08-18T20:27:46.613Z,98636.34
2023-08-18T20:30:13.559Z,98665.13
2023-08-18T20:32:40.707Z,98667.13
2023-08-18T20:35:09.033Z,98674.84
2023-08-18T20:37:35.798Z,98669.38
2023-08-18T20:40:02.555Z,98675.22
2023-08-18T20:42:29.438Z,98677.66
2023-08-18T20:44:56.485Z,98683.38
2023-08-18T20:47:23.191Z,98678.59
2023-08-18T20:49:49.865Z,98679.78
2023-08-18T20:52:16.633Z,98668.56
2023-08-18T20:54:43.446Z,98672.31
2023-08-18T20:57:10.110Z,98676.88
2023-08-18T20:59:36.931Z,98683.03
2023-08-18T21:02:03.841Z,98682.53
2023-08-18T21:04:31.281Z,98672.44
2023-08-18T21:06:58.133Z,98678.19
2023-08-18T21:09:25.619Z,98674.06
2023-08-18T21:11:52.473Z,98679.03
2023-08-18T21:14:19.041Z,98682.59
2023-08-18T21:16:45.772Z,98686.38
2023-08-18T21:19:12.445Z,98683.16
2023-08-18T21:21:39.247Z,98678.22
2023-08-18T21:24:07.508Z,98678.00
2023-08-18T21:26:34.692Z,98681.41
2023-08-18T21:29:02.533Z,98679.72
2023-08-18T21:31:29.266Z,98685.69
2023-08-18T21:33:56.004Z,98687.34
2023-08-18T21:36:25.453Z,98688.81
2023-08-18T21:38:53.209Z,98679.66
2023-08-18T21:41:20.463Z,98675.59
2023-08-18T21:43:47.290Z,98684.28
2023-08-18T21:46:14.033Z,98683.97
2023-08-18T21:48:42.071Z,98681.13
2023-08-18T21:51:10.436Z,98684.09
2023-08-18T21:53:37.221Z,98688.75
2023-08-18T21:56:04.552Z,98684.56
2023-08-18T21:58:31.824Z,98679.81
2023-08-18T22:00:59.770Z,98677.38
2023-08-18T22:03:27.322Z,98681.84
2023-08-18T22:05:55.659Z,98672.81
2023-08-18T22:08:22.805Z,98673.00
2023-08-18T22:10:49.560Z,98668.31
2023-08-18T22:13:16.421Z,98666.91
2023-08-18T22:15:43.059Z,98664.03
2023-08-18T22:18:10.252Z,98667.66
2023-08-18T22:20:37.063Z,98641.69
2023-08-18T22:23:04.998Z,98648.19
2023-08-18T22:25:32.273Z,98645.09
2023-08-18T22:27:59.501Z,98645.53
2023-08-18T22:30:26.353Z,98645.25
2023-08-18T22:32:53.220Z,98651.53
2023-08-18T22:35:19.846Z,98641.25
2023-08-18T22:37:46.649Z,98631.44
2023-08-18T22:40:13.574Z,98640.75
2023-08-18T22:42:40.338Z,98631.97
2023-08-18T22:45:10.960Z,98633.56
2023-08-18T22:47:39.697Z,98641.34
2023-08-18T22:50:07.515Z,98632.91
2023-08-18T22:52:34.971Z,98632.22
2023-08-18T22:55:02.292Z,98645.94
2023-08-18T22:57:29.532Z,98650.03
2023-08-18T22:59:56.674Z,98642.25
2023-08-18T23:02:23.404Z,98643.47
2023-08-18T23:04:50.133Z,98639.19
2023-08-18T23:07:18.451Z,98651.00
2023-08-18T23:09:45.959Z,98643.03
2023-08-18T23:12:12.740Z,98645.13
2023-08-18T23:14:39.710Z,98643.03
2023-08-18T23:17:06.716Z,98641.50
2023-08-18T23:19:34.406Z,98642.47
2023-08-18T23:22:01.154Z,98646.75
2023-08-18T23:24:27.914Z,98640.91
2023-08-18T23:26:54.655Z,98657.22
2023-08-18T23:29:21.530Z,98638.88
2023-08-18T23:31:48.444Z,98646.75
2023-08-18T23:34:15.175Z,98648.56
2023-08-18T23:36:42.140Z,98651.19
2023-08-18T23:39:10.090Z,98647.06
2023-08-18T23:41:37.282Z,98638.13
2023-08-18T23:44:04.633Z,98634.91
2023-08-18T23:46:31.454Z,98640.75
2023-08-18T23:48:58.215Z,98646.75
2023-08-18T23:51:25.004Z,98642.75
2023-08-18T23:53:51.857Z,98648.16
2023-08-18T23:56:18.424Z,98649.09
2023-08-18T23:58:45.332Z,98654.81
